Time;durP1;ratioP1;P1;durP2;ratioP2;P2;SDS_P1;SDS_P2;PMS_P1;PMS_P2;Temp;Humidity;BMP_temperature;BMP_pressure;BME280_temperature;BME280_humidity;BME280_pressure;Samples;Min_cycle;Max_cycle;Signal;HPM_P1;HPM_P2
2022/07/02 00:02:22;;;;;;;;;;;15.80;99.90;;;;;;5002553;28;20419;-77
2022/07/02 00:04:52;;;;;;;;;;;15.70;99.90;;;;;;5008048;28;19941;-76
2022/07/02 00:07:17;;;;;;;;;;;15.70;99.90;;;;;;4999688;28;19909;-76
2022/07/02 00:09:43;;;;;;;;;;;15.60;99.90;;;;;;5006826;28;19920;-76
2022/07/02 00:12:09;;;;;;;;;;;15.50;99.90;;;;;;5004741;28;20053;-76
2022/07/02 00:14:35;;;;;;;;;;;15.50;99.90;;;;;;5006560;28;19955;-76
2022/07/02 00:17:01;;;;;;;;;;;15.50;99.90;;;;;;5007439;28;19917;-76
2022/07/02 00:19:27;;;;;;;;;;;15.40;99.90;;;;;;5008901;28;19913;-76
2022/07/02 00:21:53;;;;;;;;;;;15.40;99.90;;;;;;5007477;28;19953;-76
2022/07/02 00:24:18;;;;;;;;;;;15.40;99.90;;;;;;5006573;28;19910;-76
2022/07/02 00:26:54;;;;;;;;;;;15.30;99.90;;;;;;5007299;28;19956;-76
2022/07/02 00:29:29;;;;;;;;;;;15.30;99.90;;;;;;5003039;28;20032;-76
2022/07/02 00:31:55;;;;;;;;;;;15.20;99.90;;;;;;5007285;28;21460;-76
2022/07/02 00:34:22;;;;;;;;;;;15.20;99.90;;;;;;5005056;28;19916;-76
2022/07/02 00:36:48;;;;;;;;;;;15.20;99.90;;;;;;5006187;28;19913;-76
2022/07/02 00:39:14;;;;;;;;;;;15.20;99.90;;;;;;5009667;28;19909;-76
2022/07/02 00:41:40;;;;;;;;;;;15.10;99.90;;;;;;5008675;28;19956;-76
2022/07/02 00:44:05;;;;;;;;;;;15.00;99.90;;;;;;5005240;28;19909;-76
2022/07/02 00:46:31;;;;;;;;;;;15.00;99.90;;;;;;5007596;28;19924;-76
2022/07/02 00:48:58;;;;;;;;;;;15.00;99.90;;;;;;5004269;28;19913;-78
2022/07/02 00:51:24;;;;;;;;;;;15.00;99.90;;;;;;5002687;28;19910;-76
2022/07/02 00:53:49;;;;;;;;;;;15.00;99.90;;;;;;5005214;28;19916;-76
2022/07/02 00:56:15;;;;;;;;;;;15.00;99.90;;;;;;5012441;28;19920;-76
2022/07/02 00:58:41;;;;;;;;;;;14.90;99.90;;;;;;5009658;28;19921;-76
2022/07/02 01:01:07;;;;;;;;;;;14.90;99.90;;;;;;5009718;28;19943;-76
2022/07/02 01:03:34;;;;;;;;;;;14.90;99.90;;;;;;5010066;28;19909;-76
2022/07/02 01:05:59;;;;;;;;;;;14.90;99.90;;;;;;5011182;28;19924;-76
2022/07/02 01:11:10;;;;;;;;;;;14.90;99.90;;;;;;5008485;28;20027;-76
2022/07/02 01:13:36;;;;;;;;;;;14.80;99.90;;;;;;5012127;28;20586;-76
2022/07/02 01:16:01;;;;;;;;;;;14.80;99.90;;;;;;5011747;28;19922;-76
2022/07/02 01:18:27;;;;;;;;;;;14.80;99.90;;;;;;5010339;28;19909;-76
2022/07/02 01:20:52;;;;;;;;;;;14.80;99.90;;;;;;5006087;28;19909;-75
2022/07/02 01:23:18;;;;;;;;;;;14.80;99.90;;;;;;5012794;28;19913;-75
2022/07/02 01:25:50;;;;;;;;;;;14.80;99.90;;;;;;5009939;28;20311;-76
2022/07/02 01:28:15;;;;;;;;;;;14.80;99.90;;;;;;5006232;28;19963;-76
2022/07/02 01:30:41;;;;;;;;;;;14.80;99.90;;;;;;5008920;28;19909;-76
2022/07/02 01:33:06;;;;;;;;;;;14.80;99.90;;;;;;5010192;28;19957;-76
2022/07/02 01:35:32;;;;;;;;;;;14.80;99.90;;;;;;5009874;28;20372;-75
2022/07/02 01:37:57;;;;;;;;;;;14.80;99.90;;;;;;5010438;28;19917;-76
2022/07/02 01:40:29;;;;;;;;;;;14.80;99.90;;;;;;5009526;28;19909;-76
2022/07/02 01:42:54;;;;;;;;;;;14.80;99.90;;;;;;5010251;28;19917;-76
2022/07/02 01:45:19;;;;;;;;;;;14.80;99.90;;;;;;5011682;28;20292;-75
2022/07/02 01:47:45;;;;;;;;;;;14.80;99.90;;;;;;5010783;28;20395;-75
2022/07/02 01:50:11;;;;;;;;;;;14.80;99.90;;;;;;5009278;28;19945;-76
2022/07/02 01:52:36;;;;;;;;;;;14.90;99.90;;;;;;5012287;28;19913;-77
2022/07/02 01:55:02;;;;;;;;;;;14.90;99.90;;;;;;5011307;28;19922;-76
2022/07/02 01:57:35;;;;;;;;;;;14.90;99.90;;;;;;5009564;28;20288;-77
2022/07/02 02:00:05;;;;;;;;;;;15.00;99.90;;;;;;5010009;28;19945;-76
2022/07/02 02:02:30;;;;;;;;;;;15.00;99.90;;;;;;5010208;28;19909;-76
2022/07/02 02:04:55;;;;;;;;;;;15.00;99.90;;;;;;5004388;28;19917;-76
2022/07/02 02:07:21;;;;;;;;;;;14.90;99.90;;;;;;5011317;28;19910;-76
2022/07/02 02:09:46;;;;;;;;;;;14.90;99.90;;;;;;5008448;28;19914;-75
2022/07/02 02:12:12;;;;;;;;;;;14.90;99.90;;;;;;5009199;28;19917;-76
2022/07/02 02:14:37;;;;;;;;;;;14.90;99.90;;;;;;5010886;28;19917;-76
2022/07/02 02:17:03;;;;;;;;;;;14.90;99.90;;;;;;5008874;28;19917;-76
2022/07/02 02:19:28;;;;;;;;;;;15.00;99.90;;;;;;5009082;28;19920;-75
2022/07/02 02:21:53;;;;;;;;;;;14.90;99.90;;;;;;5007739;28;19910;-76
2022/07/02 02:24:19;;;;;;;;;;;14.90;99.90;;;;;;5009884;28;20315;-76
2022/07/02 02:26:44;;;;;;;;;;;14.80;99.90;;;;;;5010580;28;19910;-76
2022/07/02 02:29:10;;;;;;;;;;;14.80;99.90;;;;;;5008462;28;19910;-76
2022/07/02 02:31:35;;;;;;;;;;;14.80;99.90;;;;;;5009926;28;19967;-76
2022/07/02 02:34:01;;;;;;;;;;;14.80;99.90;;;;;;5010674;28;20271;-76
2022/07/02 02:36:26;;;;;;;;;;;14.70;99.90;;;;;;5008872;28;19921;-76
2022/07/02 02:38:51;;;;;;;;;;;14.70;99.90;;;;;;5008698;28;19913;-76
2022/07/02 02:41:17;;;;;;;;;;;14.70;99.90;;;;;;5008737;28;20272;-76
2022/07/02 02:43:42;;;;;;;;;;;14.60;99.90;;;;;;5008504;28;19921;-76
2022/07/02 02:46:08;;;;;;;;;;;14.70;99.90;;;;;;5009254;28;19915;-75
2022/07/02 02:48:35;;;;;;;;;;;14.60;99.90;;;;;;5009351;28;19917;-76
2022/07/02 02:51:00;;;;;;;;;;;14.60;99.90;;;;;;5007769;28;19916;-76
2022/07/02 02:53:26;;;;;;;;;;;14.60;99.90;;;;;;5007407;28;19913;-76
2022/07/02 02:55:51;;;;;;;;;;;14.60;99.90;;;;;;5007059;28;19922;-76
2022/07/02 02:58:17;;;;;;;;;;;14.60;99.90;;;;;;5009463;28;20395;-76
2022/07/02 03:00:42;;;;;;;;;;;14.60;99.90;;;;;;5007731;28;19916;-76
2022/07/02 03:03:08;;;;;;;;;;;14.60;99.90;;;;;;5010525;28;19909;-76
2022/07/02 03:05:33;;;;;;;;;;;14.60;99.90;;;;;;5008698;28;19921;-75
2022/07/02 03:07:58;;;;;;;;;;;14.60;99.90;;;;;;5007793;28;19928;-76
2022/07/02 03:10:24;;;;;;;;;;;14.60;99.90;;;;;;5010213;28;20383;-77
2022/07/02 03:12:49;;;;;;;;;;;14.60;99.90;;;;;;5007231;28;20352;-76
2022/07/02 03:15:15;;;;;;;;;;;14.50;99.90;;;;;;5007465;28;19917;-76
2022/07/02 03:17:40;;;;;;;;;;;14.40;99.90;;;;;;5009317;28;19920;-76
2022/07/02 03:20:06;;;;;;;;;;;14.50;99.90;;;;;;5007030;28;20380;-76
2022/07/02 03:22:31;;;;;;;;;;;14.40;99.90;;;;;;5008209;28;19955;-77
2022/07/02 03:24:57;;;;;;;;;;;14.40;99.90;;;;;;5007105;28;19909;-77
2022/07/02 03:27:22;;;;;;;;;;;14.50;99.90;;;;;;5002753;28;19910;-75
2022/07/02 03:29:48;;;;;;;;;;;14.50;99.90;;;;;;5007139;28;20261;-76
2022/07/02 03:32:18;;;;;;;;;;;14.40;99.90;;;;;;5009393;28;19909;-75
2022/07/02 03:34:43;;;;;;;;;;;14.50;99.90;;;;;;5005744;28;19913;-76
2022/07/02 03:37:09;;;;;;;;;;;14.50;99.90;;;;;;5009651;28;19917;-76
2022/07/02 03:39:34;;;;;;;;;;;14.40;99.90;;;;;;5004137;28;19909;-76
2022/07/02 03:41:59;;;;;;;;;;;14.40;99.90;;;;;;5007246;28;19909;-76
2022/07/02 03:44:25;;;;;;;;;;;14.40;99.90;;;;;;5008938;28;19909;-76
2022/07/02 03:46:50;;;;;;;;;;;14.50;99.90;;;;;;5009068;28;19909;-77
2022/07/02 03:49:16;;;;;;;;;;;14.50;99.90;;;;;;5010079;28;20350;-75
2022/07/02 03:51:41;;;;;;;;;;;14.60;99.90;;;;;;5005224;28;19916;-76
2022/07/02 03:54:06;;;;;;;;;;;14.50;99.90;;;;;;5009659;28;19947;-77
2022/07/02 03:56:32;;;;;;;;;;;14.50;99.90;;;;;;5008604;28;19913;-76
2022/07/02 03:58:57;;;;;;;;;;;14.60;99.90;;;;;;5010392;28;19905;-76
2022/07/02 04:01:23;;;;;;;;;;;14.60;99.90;;;;;;5009520;28;19992;-76
2022/07/02 04:03:48;;;;;;;;;;;14.70;99.90;;;;;;5005952;28;19909;-76
2022/07/02 04:06:13;;;;;;;;;;;14.70;99.90;;;;;;5006696;28;20043;-76
2022/07/02 04:08:39;;;;;;;;;;;14.80;99.90;;;;;;5010212;28;19994;-76
2022/07/02 04:11:04;;;;;;;;;;;14.90;99.90;;;;;;5006995;28;19913;-76
2022/07/02 04:13:30;;;;;;;;;;;15.00;99.90;;;;;;5009319;28;19913;-76
2022/07/02 04:15:55;;;;;;;;;;;15.10;99.90;;;;;;5007093;28;20331;-76
2022/07/02 04:18:20;;;;;;;;;;;15.10;99.90;;;;;;5007301;28;20391;-76
2022/07/02 04:20:46;;;;;;;;;;;15.20;99.90;;;;;;5006304;28;19999;-77
2022/07/02 04:23:11;;;;;;;;;;;15.20;99.90;;;;;;5007399;28;20000;-76
2022/07/02 04:25:37;;;;;;;;;;;15.30;99.90;;;;;;5008714;28;20005;-76
2022/07/02 04:28:03;;;;;;;;;;;15.40;99.90;;;;;;5006979;28;19910;-76
2022/07/02 04:30:28;;;;;;;;;;;15.40;99.90;;;;;;5008788;28;19909;-77
2022/07/02 04:32:54;;;;;;;;;;;15.50;99.90;;;;;;5007608;28;19910;-76
2022/07/02 04:35:19;;;;;;;;;;;15.50;99.90;;;;;;5007360;28;19935;-76
2022/07/02 04:37:44;;;;;;;;;;;15.50;99.90;;;;;;5007904;28;20331;-76
2022/07/02 04:40:10;;;;;;;;;;;15.50;99.90;;;;;;5007643;28;20343;-76
2022/07/02 04:42:35;;;;;;;;;;;15.60;99.90;;;;;;5007093;28;19956;-76
2022/07/02 04:45:01;;;;;;;;;;;15.70;99.90;;;;;;5004431;28;19992;-76
2022/07/02 04:47:26;;;;;;;;;;;15.70;99.90;;;;;;5008563;28;19913;-76
2022/07/02 04:49:52;;;;;;;;;;;15.80;99.90;;;;;;5001882;28;19909;-78
2022/07/02 04:52:17;;;;;;;;;;;15.90;99.90;;;;;;5007737;28;20303;-76
2022/07/02 04:54:42;;;;;;;;;;;15.90;99.90;;;;;;5005167;28;19917;-76
2022/07/02 04:57:08;;;;;;;;;;;15.90;99.90;;;;;;5006790;28;19913;-76
2022/07/02 04:59:33;;;;;;;;;;;16.00;99.90;;;;;;5006764;28;19909;-77
2022/07/02 05:01:59;;;;;;;;;;;16.00;99.90;;;;;;5004965;28;20360;-76
2022/07/02 05:04:24;;;;;;;;;;;16.10;99.90;;;;;;5004476;28;19909;-76
2022/07/02 05:06:50;;;;;;;;;;;16.10;99.90;;;;;;5007999;28;19910;-76
2022/07/02 05:09:15;;;;;;;;;;;16.10;99.90;;;;;;5006965;28;19917;-76
2022/07/02 05:11:41;;;;;;;;;;;16.20;99.90;;;;;;5007674;28;20369;-77
2022/07/02 05:14:06;;;;;;;;;;;16.20;99.90;;;;;;5007906;28;20380;-77
2022/07/02 05:16:31;;;;;;;;;;;16.30;99.90;;;;;;5008706;28;20067;-76
2022/07/02 05:18:57;;;;;;;;;;;16.30;99.90;;;;;;5007175;28;19922;-77
2022/07/02 05:21:22;;;;;;;;;;;16.30;99.90;;;;;;5007437;28;19917;-77
2022/07/02 05:23:48;;;;;;;;;;;16.40;99.90;;;;;;5007230;28;19918;-76
2022/07/02 05:26:13;;;;;;;;;;;16.40;99.90;;;;;;5006934;28;19913;-76
2022/07/02 05:28:38;;;;;;;;;;;16.40;99.90;;;;;;5008039;28;19918;-76
2022/07/02 05:31:04;;;;;;;;;;;16.50;99.90;;;;;;5002906;28;20368;-76
2022/07/02 05:33:29;;;;;;;;;;;16.50;99.90;;;;;;4999874;28;19917;-76
2022/07/02 05:35:55;;;;;;;;;;;16.50;99.90;;;;;;5010886;28;19913;-76
2022/07/02 05:38:20;;;;;;;;;;;16.60;99.90;;;;;;5009511;28;20048;-77
2022/07/02 05:40:46;;;;;;;;;;;16.70;99.90;;;;;;5010006;28;19917;-76
2022/07/02 05:43:12;;;;;;;;;;;16.70;99.90;;;;;;5007051;28;19913;-76
2022/07/02 05:45:38;;;;;;;;;;;16.80;99.90;;;;;;5011927;28;19915;-77
2022/07/02 05:48:03;;;;;;;;;;;16.80;99.90;;;;;;5009377;28;19910;-77
2022/07/02 05:50:29;;;;;;;;;;;16.90;99.90;;;;;;5006804;28;20356;-77
2022/07/02 05:52:54;;;;;;;;;;;16.90;99.90;;;;;;5007829;28;19960;-77
2022/07/02 05:55:19;;;;;;;;;;;17.00;99.90;;;;;;5000919;28;19917;-76
2022/07/02 05:57:45;;;;;;;;;;;17.00;99.90;;;;;;4990075;28;19922;-77
2022/07/02 06:00:11;;;;;;;;;;;17.00;99.90;;;;;;4990878;28;19920;-79
2022/07/02 06:02:36;;;;;;;;;;;17.10;99.90;;;;;;4995817;28;20345;-76
2022/07/02 06:07:46;;;;;;;;;;;17.20;99.90;;;;;;4988073;28;20009;-76
2022/07/02 06:10:18;;;;;;;;;;;17.20;99.90;;;;;;4991892;28;19996;-78
2022/07/02 06:12:51;;;;;;;;;;;17.30;99.90;;;;;;4997647;28;19918;-80
2022/07/02 06:15:17;;;;;;;;;;;17.30;99.90;;;;;;4988448;28;19917;-79
2022/07/02 06:17:43;;;;;;;;;;;17.40;99.90;;;;;;4972674;28;19976;-76
2022/07/02 06:20:09;;;;;;;;;;;17.50;99.90;;;;;;4989246;28;19960;-77
2022/07/02 06:22:35;;;;;;;;;;;17.50;99.90;;;;;;4999947;28;19917;-76
2022/07/02 06:25:00;;;;;;;;;;;17.50;99.90;;;;;;4989767;28;19921;-77
2022/07/02 06:27:26;;;;;;;;;;;17.50;99.90;;;;;;4988841;28;19925;-77
2022/07/02 06:29:57;;;;;;;;;;;17.60;99.90;;;;;;4987475;28;19918;-77
2022/07/02 06:32:23;;;;;;;;;;;17.60;99.90;;;;;;4989389;28;20008;-79
2022/07/02 06:34:48;;;;;;;;;;;17.60;99.90;;;;;;4984042;28;20000;-82
2022/07/02 06:37:13;;;;;;;;;;;17.70;99.90;;;;;;4985411;28;19918;-82
2022/07/02 06:39:39;;;;;;;;;;;17.80;99.90;;;;;;4996173;28;19973;-82
2022/07/02 06:42:20;;;;;;;;;;;17.80;99.90;;;;;;4990709;28;20420;-82
2022/07/02 06:44:46;;;;;;;;;;;17.80;99.90;;;;;;4994014;28;19921;-83
2022/07/02 06:47:12;;;;;;;;;;;17.90;99.90;;;;;;4989931;28;19913;-82
2022/07/02 06:49:37;;;;;;;;;;;17.90;99.90;;;;;;4991796;28;19916;-82
2022/07/02 06:52:03;;;;;;;;;;;18.00;99.90;;;;;;4989761;28;19933;-80
2022/07/02 06:54:29;;;;;;;;;;;18.00;99.90;;;;;;4996449;28;19917;-80
2022/07/02 06:56:54;;;;;;;;;;;18.10;99.90;;;;;;5009229;28;19935;-79
2022/07/02 06:59:19;;;;;;;;;;;18.20;99.90;;;;;;5006878;28;20387;-80
2022/07/02 07:01:45;;;;;;;;;;;18.20;99.90;;;;;;5010062;28;19909;-79
2022/07/02 07:04:19;;;;;;;;;;;18.20;99.90;;;;;;5010105;28;19909;-82
2022/07/02 07:06:59;;;;;;;;;;;18.30;99.90;;;;;;5017690;28;19959;-83
2022/07/02 07:09:26;;;;;;;;;;;18.30;99.90;;;;;;5004480;28;19963;-82
2022/07/02 07:11:51;;;;;;;;;;;18.40;99.90;;;;;;5005127;28;19910;-80
2022/07/02 07:14:17;;;;;;;;;;;18.50;99.90;;;;;;5009353;28;19917;-80
2022/07/02 07:16:43;;;;;;;;;;;18.60;99.90;;;;;;5011827;28;19968;-81
2022/07/02 07:19:08;;;;;;;;;;;18.60;99.90;;;;;;5009694;28;19910;-80
2022/07/02 07:21:34;;;;;;;;;;;18.70;99.90;;;;;;5006275;28;19909;-81
2022/07/02 07:24:00;;;;;;;;;;;18.70;99.90;;;;;;5005669;28;20329;-83
2022/07/02 07:26:25;;;;;;;;;;;18.80;99.90;;;;;;5000912;28;19956;-79
2022/07/02 07:28:51;;;;;;;;;;;18.80;99.90;;;;;;5007242;28;20357;-77
2022/07/02 07:31:20;;;;;;;;;;;18.90;99.90;;;;;;5007499;28;19917;-77
2022/07/02 07:33:49;;;;;;;;;;;18.90;99.70;;;;;;5008444;28;20380;-77
2022/07/02 07:36:14;;;;;;;;;;;18.90;99.90;;;;;;5009014;28;19909;-77
2022/07/02 07:38:40;;;;;;;;;;;19.00;99.40;;;;;;5010027;28;19967;-77
2022/07/02 07:41:06;;;;;;;;;;;19.10;97.10;;;;;;5007662;28;19920;-79
2022/07/02 07:43:31;;;;;;;;;;;19.20;96.30;;;;;;5007613;28;20242;-77
2022/07/02 07:45:57;;;;;;;;;;;19.30;94.60;;;;;;5008322;28;19937;-78
2022/07/02 07:48:22;;;;;;;;;;;19.40;94.70;;;;;;5008273;28;19920;-77
2022/07/02 07:50:48;;;;;;;;;;;19.40;95.40;;;;;;5008737;28;19916;-77
2022/07/02 07:53:13;;;;;;;;;;;19.50;95.50;;;;;;5007410;28;19916;-78
2022/07/02 07:55:39;;;;;;;;;;;19.50;94.40;;;;;;5008786;28;19917;-78
2022/07/02 07:58:05;;;;;;;;;;;19.60;91.10;;;;;;5007354;28;19920;-78
2022/07/02 08:00:31;;;;;;;;;;;19.70;91.00;;;;;;5008989;28;20326;-77
2022/07/02 08:02:56;;;;;;;;;;;19.80;91.80;;;;;;5005785;28;19975;-77
2022/07/02 08:05:22;;;;;;;;;;;19.80;89.20;;;;;;5003358;28;19909;-77
2022/07/02 08:07:48;;;;;;;;;;;20.00;83.90;;;;;;5009154;28;19960;-76
2022/07/02 08:10:13;;;;;;;;;;;20.00;84.00;;;;;;5007289;28;19913;-83
2022/07/02 08:12:41;;;;;;;;;;;20.10;83.10;;;;;;5007001;28;19916;-79
2022/07/02 08:15:08;;;;;;;;;;;20.10;82.50;;;;;;5008333;28;19914;-80
2022/07/02 08:17:33;;;;;;;;;;;20.30;81.00;;;;;;5009401;28;19913;-80
2022/07/02 08:19:58;;;;;;;;;;;20.40;80.90;;;;;;5009103;28;19916;-81
2022/07/02 08:22:24;;;;;;;;;;;20.40;75.70;;;;;;5009173;28;19910;-79
2022/07/02 08:24:49;;;;;;;;;;;20.40;74.30;;;;;;5007023;28;19952;-81
2022/07/02 08:27:15;;;;;;;;;;;20.30;74.80;;;;;;5009434;28;20687;-80
2022/07/02 08:29:40;;;;;;;;;;;20.50;75.40;;;;;;5007343;28;19935;-80
2022/07/02 08:32:06;;;;;;;;;;;20.70;74.20;;;;;;5008534;28;19943;-79
2022/07/02 08:34:32;;;;;;;;;;;20.90;72.00;;;;;;5007812;28;19913;-78
2022/07/02 08:36:57;;;;;;;;;;;20.80;71.50;;;;;;5009398;28;20312;-79
2022/07/02 08:39:23;;;;;;;;;;;20.60;73.70;;;;;;5009688;28;20326;-80
2022/07/02 08:41:49;;;;;;;;;;;20.60;75.90;;;;;;5008560;28;19968;-80
2022/07/02 08:44:15;;;;;;;;;;;20.60;75.30;;;;;;5005828;28;19910;-80
2022/07/02 08:46:41;;;;;;;;;;;20.90;76.00;;;;;;5006677;28;19910;-82
2022/07/02 08:49:07;;;;;;;;;;;21.10;75.60;;;;;;5008190;28;19909;-82
2022/07/02 08:51:32;;;;;;;;;;;21.20;74.80;;;;;;5007186;28;19913;-81
2022/07/02 08:54:00;;;;;;;;;;;21.20;72.80;;;;;;4999694;28;20342;-76
2022/07/02 08:56:26;;;;;;;;;;;21.20;74.00;;;;;;5005263;28;19971;-78
2022/07/02 08:58:52;;;;;;;;;;;21.10;70.70;;;;;;4999225;28;19920;-73
2022/07/02 09:01:18;;;;;;;;;;;20.90;70.00;;;;;;5000014;28;19913;-74
2022/07/02 09:03:43;;;;;;;;;;;20.70;72.30;;;;;;5012574;28;19913;-75
2022/07/02 09:06:09;;;;;;;;;;;20.70;71.60;;;;;;5005262;28;20368;-75
2022/07/02 09:08:35;;;;;;;;;;;21.00;70.10;;;;;;5009822;28;19989;-75
2022/07/02 09:11:01;;;;;;;;;;;21.10;68.00;;;;;;5011655;28;19905;-74
2022/07/02 09:13:27;;;;;;;;;;;21.20;68.80;;;;;;5012743;28;19920;-74
2022/07/02 09:15:53;;;;;;;;;;;21.40;69.00;;;;;;5009007;28;19909;-73
2022/07/02 09:18:19;;;;;;;;;;;21.50;70.90;;;;;;5008438;28;19924;-73
2022/07/02 09:20:44;;;;;;;;;;;21.60;67.60;;;;;;5006048;28;19909;-74
2022/07/02 09:23:19;;;;;;;;;;;21.70;70.70;;;;;;5009030;28;19917;-83
2022/07/02 09:25:45;;;;;;;;;;;21.70;69.60;;;;;;5021319;28;19913;-80
2022/07/02 09:28:12;;;;;;;;;;;21.80;68.90;;;;;;5010211;28;20275;-77
2022/07/02 09:30:38;;;;;;;;;;;21.80;68.10;;;;;;4997934;28;20308;-77
2022/07/02 09:33:30;;;;;;;;;;;21.90;68.50;;;;;;5004545;28;19910;-81
2022/07/02 09:35:56;;;;;;;;;;;21.90;65.30;;;;;;5006195;28;20336;-75
2022/07/02 09:38:22;;;;;;;;;;;21.90;66.00;;;;;;5005148;28;20390;-77
2022/07/02 09:40:51;;;;;;;;;;;22.10;63.00;;;;;;5004616;28;19909;-77
2022/07/02 09:43:31;;;;;;;;;;;22.00;63.50;;;;;;5011042;28;20363;-77
2022/07/02 09:45:56;;;;;;;;;;;21.90;64.70;;;;;;5009496;28;19913;-76
2022/07/02 09:48:22;;;;;;;;;;;21.80;65.60;;;;;;5010401;28;19916;-77
2022/07/02 09:50:47;;;;;;;;;;;21.70;64.90;;;;;;5013769;28;19971;-79
2022/07/02 09:53:13;;;;;;;;;;;21.50;64.10;;;;;;5014452;28;19914;-80
2022/07/02 09:55:38;;;;;;;;;;;21.50;66.90;;;;;;5015265;28;20637;-80
2022/07/02 09:58:04;;;;;;;;;;;21.70;65.30;;;;;;5006799;28;19962;-80
2022/07/02 10:00:31;;;;;;;;;;;22.00;62.90;;;;;;5010489;28;19917;-77
2022/07/02 10:02:57;;;;;;;;;;;22.10;63.50;;;;;;5010547;28;19944;-79
2022/07/02 10:05:24;;;;;;;;;;;22.30;60.00;;;;;;5007534;28;20360;-78
2022/07/02 10:07:54;;;;;;;;;;;22.40;60.00;;;;;;5006540;28;19992;-79
2022/07/02 10:10:24;;;;;;;;;;;22.50;59.40;;;;;;5009930;28;19909;-79
2022/07/02 10:12:50;;;;;;;;;;;22.60;61.10;;;;;;5007361;28;20367;-79
2022/07/02 10:15:19;;;;;;;;;;;23.00;61.00;;;;;;5006949;28;19936;-83
2022/07/02 10:17:45;;;;;;;;;;;23.30;61.30;;;;;;5008702;28;19956;-80
2022/07/02 10:20:11;;;;;;;;;;;23.40;58.10;;;;;;5002156;28;20292;-81
2022/07/02 10:22:36;;;;;;;;;;;23.40;55.70;;;;;;5006363;28;19913;-80
2022/07/02 10:25:04;;;;;;;;;;;23.50;56.80;;;;;;5004499;28;20055;-79
2022/07/02 10:27:30;;;;;;;;;;;23.50;55.00;;;;;;5011718;28;20277;-79
2022/07/02 10:29:55;;;;;;;;;;;23.40;57.20;;;;;;5004261;28;19913;-79
2022/07/02 10:32:40;;;;;;;;;;;23.70;60.40;;;;;;5007745;28;19989;-77
2022/07/02 10:35:06;;;;;;;;;;;23.90;57.10;;;;;;4996859;28;20461;-79
2022/07/02 10:37:32;;;;;;;;;;;24.00;55.80;;;;;;5011337;28;20044;-79
2022/07/02 10:40:03;;;;;;;;;;;24.20;55.90;;;;;;5010619;28;19913;-79
2022/07/02 10:42:44;;;;;;;;;;;24.40;54.60;;;;;;5007325;28;19921;-77
2022/07/02 10:45:17;;;;;;;;;;;24.30;53.80;;;;;;5005515;28;19932;-77
2022/07/02 10:47:57;;;;;;;;;;;24.40;54.30;;;;;;5011584;28;19959;-78
2022/07/02 10:50:40;;;;;;;;;;;24.70;56.10;;;;;;5009817;28;19948;-79
2022/07/02 10:53:07;;;;;;;;;;;25.20;54.60;;;;;;5007466;28;19909;-79
2022/07/02 10:55:32;;;;;;;;;;;25.20;53.40;;;;;;5005162;28;20435;-77
2022/07/02 10:57:59;;;;;;;;;;;25.00;51.00;;;;;;4999220;28;19917;-78
2022/07/02 11:00:32;;;;;;;;;;;24.70;52.30;;;;;;5007832;28;19919;-79
2022/07/02 11:02:58;;;;;;;;;;;24.70;55.60;;;;;;5008612;28;19940;-79
2022/07/02 11:05:24;;;;;;;;;;;24.40;53.60;;;;;;5009768;28;19924;-77
2022/07/02 11:07:49;;;;;;;;;;;24.10;53.60;;;;;;5010917;28;19909;-79
2022/07/02 11:10:14;;;;;;;;;;;24.00;56.30;;;;;;5006784;28;19914;-79
2022/07/02 11:12:48;;;;;;;;;;;24.10;57.10;;;;;;5010144;28;19909;-76
2022/07/02 11:15:18;;;;;;;;;;;24.20;54.40;;;;;;5001335;28;20007;-78
2022/07/02 11:17:47;;;;;;;;;;;24.30;54.80;;;;;;5011127;28;19932;-79
2022/07/02 11:20:12;;;;;;;;;;;24.20;55.70;;;;;;5010010;28;20000;-80
2022/07/02 11:22:38;;;;;;;;;;;24.10;61.70;;;;;;5011396;28;20318;-81
2022/07/02 11:25:04;;;;;;;;;;;24.60;57.10;;;;;;5004626;28;20387;-80
2022/07/02 11:27:30;;;;;;;;;;;25.30;59.00;;;;;;5009330;28;20003;-78
2022/07/02 11:29:55;;;;;;;;;;;25.80;53.60;;;;;;5007581;28;20003;-78
2022/07/02 11:32:21;;;;;;;;;;;26.10;50.60;;;;;;5009473;28;20065;-77
2022/07/02 11:34:56;;;;;;;;;;;26.40;52.00;;;;;;5008263;28;19914;-79
2022/07/02 11:37:21;;;;;;;;;;;26.50;51.40;;;;;;5009452;28;19913;-77
2022/07/02 11:39:47;;;;;;;;;;;27.10;51.20;;;;;;5009199;28;19939;-78
2022/07/02 11:42:12;;;;;;;;;;;27.20;50.10;;;;;;5008426;28;19913;-77
2022/07/02 11:44:38;;;;;;;;;;;27.40;50.10;;;;;;5008852;28;20348;-79
2022/07/02 11:47:03;;;;;;;;;;;27.40;48.70;;;;;;5006876;28;19917;-78
2022/07/02 11:49:32;;;;;;;;;;;26.70;49.00;;;;;;5004999;28;19985;-78
2022/07/02 11:51:57;;;;;;;;;;;26.20;49.70;;;;;;5006807;28;19927;-81
2022/07/02 11:54:23;;;;;;;;;;;26.00;51.00;;;;;;5005610;28;19913;-80
2022/07/02 11:56:49;;;;;;;;;;;25.60;50.70;;;;;;5007739;28;19913;-86
2022/07/02 11:59:16;;;;;;;;;;;25.80;52.50;;;;;;5008293;28;19917;-80
2022/07/02 12:01:42;;;;;;;;;;;26.40;51.20;;;;;;5005642;28;20335;-81
2022/07/02 12:04:13;;;;;;;;;;;26.90;50.40;;;;;;5006820;28;19956;-84
2022/07/02 12:06:40;;;;;;;;;;;27.00;49.70;;;;;;4999316;28;19932;-84
2022/07/02 12:09:07;;;;;;;;;;;26.70;47.40;;;;;;5004227;28;19940;-82
2022/07/02 12:11:36;;;;;;;;;;;26.30;48.90;;;;;;5005636;28;20356;-82
2022/07/02 12:14:02;;;;;;;;;;;26.50;53.80;;;;;;5004543;28;19913;-86
2022/07/02 12:16:28;;;;;;;;;;;27.30;48.00;;;;;;5004006;28;19917;-80
2022/07/02 12:19:01;;;;;;;;;;;27.80;47.10;;;;;;5002020;28;19964;-76
2022/07/02 12:21:37;;;;;;;;;;;28.40;42.90;;;;;;5004455;28;19929;-84
2022/07/02 12:24:05;;;;;;;;;;;28.20;43.20;;;;;;5001105;28;19909;-82
2022/07/02 12:26:31;;;;;;;;;;;27.30;43.70;;;;;;5006393;28;19917;-85
2022/07/02 12:32:03;;;;;;;;;;;26.40;50.50;;;;;;5005775;28;20554;-81
2022/07/02 12:34:35;;;;;;;;;;;26.30;50.20;;;;;;5002803;28;19913;-85
2022/07/02 12:37:01;;;;;;;;;;;27.10;49.10;;;;;;5002258;28;19919;-88
2022/07/02 12:39:57;;;;;;;;;;;28.60;48.80;;;;;;5001440;28;19913;-85
2022/07/02 12:42:23;;;;;;;;;;;29.90;44.40;;;;;;4992386;28;20482;-78
2022/07/02 12:44:53;;;;;;;;;;;30.10;40.10;;;;;;4999214;28;19972;-79
2022/07/02 12:47:25;;;;;;;;;;;29.80;40.50;;;;;;5001853;28;19909;-84
2022/07/02 12:49:51;;;;;;;;;;;29.80;41.20;;;;;;5005583;28;19916;-79
2022/07/02 12:52:17;;;;;;;;;;;29.80;39.70;;;;;;5003052;28;19965;-83
2022/07/02 12:54:42;;;;;;;;;;;30.40;39.80;;;;;;5003675;28;20333;-79
2022/07/02 12:57:11;;;;;;;;;;;31.10;41.30;;;;;;5000458;28;19914;-83
2022/07/02 12:59:36;;;;;;;;;;;31.40;40.20;;;;;;5005096;28;20197;-85
2022/07/02 13:02:02;;;;;;;;;;;31.80;36.00;;;;;;5001330;28;19909;-85
2022/07/02 13:04:27;;;;;;;;;;;33.10;35.10;;;;;;5006285;28;19909;-79
2022/07/02 13:06:53;;;;;;;;;;;34.40;32.80;;;;;;5004848;28;19949;-84
2022/07/02 13:09:18;;;;;;;;;;;35.70;36.10;;;;;;5006598;28;20031;-83
2022/07/02 13:11:44;;;;;;;;;;;36.00;32.20;;;;;;5007659;28;19988;-83
2022/07/02 13:14:09;;;;;;;;;;;35.50;30.90;;;;;;5004970;28;19909;-84
2022/07/02 13:16:35;;;;;;;;;;;37.20;32.40;;;;;;5005735;28;19985;-81
2022/07/02 13:19:01;;;;;;;;;;;37.60;30.90;;;;;;5003436;28;19947;-82
2022/07/02 13:21:26;;;;;;;;;;;38.40;31.00;;;;;;5007570;28;19992;-83
2022/07/02 13:23:51;;;;;;;;;;;39.20;30.50;;;;;;5003206;28;19919;-84
2022/07/02 13:26:17;;;;;;;;;;;41.10;30.60;;;;;;5002356;28;19916;-84
2022/07/02 13:28:42;;;;;;;;;;;42.30;29.70;;;;;;5011720;28;20396;-84
2022/07/02 13:31:08;;;;;;;;;;;42.30;26.60;;;;;;5004015;28;19989;-81
2022/07/02 13:33:33;;;;;;;;;;;43.10;27.40;;;;;;5007264;28;19913;-82
2022/07/02 13:35:59;;;;;;;;;;;43.80;25.30;;;;;;5007827;28;19963;-82
2022/07/02 13:38:24;;;;;;;;;;;43.10;25.20;;;;;;5006666;28;19914;-84
2022/07/02 13:40:49;;;;;;;;;;;43.30;27.60;;;;;;5001365;28;20310;-85
2022/07/02 13:43:15;;;;;;;;;;;44.00;25.00;;;;;;5002570;28;20323;-80
2022/07/02 13:45:40;;;;;;;;;;;43.60;24.50;;;;;;5005337;28;19963;-80
2022/07/02 13:48:06;;;;;;;;;;;43.10;24.80;;;;;;5006275;28;20534;-86
2022/07/02 13:50:31;;;;;;;;;;;44.20;25.40;;;;;;5003613;28;19913;-83
2022/07/02 13:52:56;;;;;;;;;;;45.20;25.00;;;;;;5007608;28;20455;-80
2022/07/02 13:55:22;;;;;;;;;;;44.90;25.30;;;;;;5008004;28;19917;-79
2022/07/02 13:57:47;;;;;;;;;;;45.40;25.90;;;;;;5003591;28;20458;-79
2022/07/02 14:00:13;;;;;;;;;;;41.20;24.80;;;;;;5008652;28;20364;-79
2022/07/02 14:02:38;;;;;;;;;;;39.30;27.20;;;;;;5001980;28;19909;-80
2022/07/02 14:05:04;;;;;;;;;;;41.50;27.50;;;;;;5009082;28;20352;-85
2022/07/02 14:07:30;;;;;;;;;;;43.20;28.70;;;;;;5004868;28;19920;-79
2022/07/02 14:09:55;;;;;;;;;;;45.00;26.40;;;;;;5009141;28;19988;-80
2022/07/02 14:12:22;;;;;;;;;;;46.10;26.80;;;;;;5007997;28;20421;-81
2022/07/02 14:14:47;;;;;;;;;;;46.90;25.50;;;;;;5006960;28;19914;-81
2022/07/02 14:17:12;;;;;;;;;;;47.10;24.30;;;;;;5004462;28;19918;-81
2022/07/02 14:19:47;;;;;;;;;;;46.50;24.60;;;;;;5007355;28;19975;-82
2022/07/02 14:22:15;;;;;;;;;;;45.90;26.70;;;;;;5006636;28;19953;-82